Time;durP1;ratioP1;P1;durP2;ratioP2;P2;SDS_P1;SDS_P2;PMS_P1;PMS_P2;Temp;Humidity;BMP_temperature;BMP_pressure;BME280_temperature;BME280_humidity;BME280_pressure;Samples;Min_cycle;Max_cycle;Signal;HPM_P1;HPM_P2
2022/10/16 00:01:08;;;;;;;29.67;19.45;;;11.90;99.90;;;;;;5114123;28;20016;-74
2022/10/16 00:03:34;;;;;;;30.10;18.60;;;11.90;99.90;;;;;;5112788;28;20027;-71
2022/10/16 00:06:01;;;;;;;27.63;18.05;;;11.80;99.90;;;;;;5114016;28;20059;-71
2022/10/16 00:08:27;;;;;;;29.73;17.70;;;11.80;99.90;;;;;;5113847;28;20024;-71
2022/10/16 00:10:52;;;;;;;26.45;17.70;;;11.80;99.90;;;;;;5114048;28;20042;-72
2022/10/16 00:13:20;;;;;;;28.27;16.42;;;11.80;99.90;;;;;;5111845;28;20107;-74
2022/10/16 00:15:46;;;;;;;25.08;16.85;;;11.70;99.90;;;;;;5093575;28;20028;-74
2022/10/16 00:18:12;;;;;;;28.10;18.25;;;11.70;99.90;;;;;;5093512;28;20027;-74
2022/10/16 00:20:37;;;;;;;31.23;17.38;;;11.70;99.90;;;;;;5096215;28;20012;-72
2022/10/16 00:23:04;;;;;;;30.15;17.17;;;11.70;99.90;;;;;;5113957;28;20031;-74
2022/10/16 00:25:32;;;;;;;32.70;18.40;;;11.70;99.90;;;;;;5113849;28;20031;-71
2022/10/16 00:27:58;;;;;;;32.55;18.70;;;11.70;99.90;;;;;;5113832;28;20114;-71
2022/10/16 00:30:26;;;;;;;34.85;18.73;;;11.60;99.90;;;;;;5096996;28;20032;-74
2022/10/16 00:32:52;;;;;;;32.47;18.80;;;11.60;99.90;;;;;;5093436;28;20483;-71
2022/10/16 00:35:17;;;;;;;33.88;19.13;;;11.60;99.90;;;;;;5092093;28;20090;-74
2022/10/16 00:37:43;;;;;;;25.60;16.88;;;11.60;99.90;;;;;;5093405;28;20024;-73
2022/10/16 00:40:10;;;;;;;29.25;16.92;;;11.60;99.90;;;;;;5092135;28;20113;-74
2022/10/16 00:42:35;;;;;;;33.83;18.90;;;11.60;99.90;;;;;;5093343;28;20043;-71
2022/10/16 00:45:01;;;;;;;26.75;17.75;;;11.60;99.90;;;;;;5093327;28;20020;-74
2022/10/16 00:47:37;;;;;;;28.33;17.42;;;11.60;99.90;;;;;;5093293;28;20020;-73
2022/10/16 00:50:02;;;;;;;27.10;18.45;;;11.60;99.90;;;;;;5091932;28;20089;-74
2022/10/16 00:52:28;;;;;;;25.83;16.25;;;11.60;99.90;;;;;;5093248;28;20055;-71
2022/10/16 00:54:55;;;;;;;31.95;17.80;;;11.60;99.90;;;;;;5093225;28;20473;-74
2022/10/16 00:57:21;;;;;;;30.80;18.80;;;11.60;99.90;;;;;;5093170;28;20028;-74
2022/10/16 00:59:46;;;;;;;28.80;17.85;;;11.60;99.90;;;;;;5091918;28;20047;-71
2022/10/16 01:02:14;;;;;;;30.73;18.38;;;11.60;99.90;;;;;;5093153;28;20468;-71
2022/10/16 01:04:52;;;;;;;32.88;18.33;;;11.60;99.90;;;;;;5091666;28;20404;-71
2022/10/16 01:07:24;;;;;;;27.27;16.83;;;11.60;99.90;;;;;;5096343;28;20408;-74
2022/10/16 01:10:04;;;;;;;29.88;18.75;;;11.60;99.90;;;;;;5096866;28;20370;-71
2022/10/16 01:12:30;;;;;;;30.90;18.13;;;11.60;99.90;;;;;;5096989;28;20028;-73
2022/10/16 01:15:10;;;;;;;29.67;19.33;;;11.60;99.90;;;;;;5095765;28;20031;-74
2022/10/16 01:17:52;;;;;;;29.38;19.33;;;11.60;99.90;;;;;;5096943;28;20027;-74
2022/10/16 01:20:31;;;;;;;31.13;18.83;;;11.60;99.90;;;;;;5095466;28;20032;-70
2022/10/16 01:23:00;;;;;;;30.55;19.58;;;11.60;99.90;;;;;;5095437;28;20098;-74
2022/10/16 01:25:56;;;;;;;31.50;19.20;;;11.60;99.90;;;;;;5096746;28;20421;-71
2022/10/16 01:28:28;;;;;;;28.75;19.00;;;11.60;99.90;;;;;;5096572;28;20095;-74
2022/10/16 01:30:57;;;;;;;30.23;19.00;;;11.60;99.90;;;;;;5075048;28;20045;-71
2022/10/16 01:33:48;;;;;;;31.38;19.58;;;11.60;99.90;;;;;;5095910;28;20012;-71
2022/10/16 01:36:21;;;;;;;28.85;18.05;;;11.60;99.90;;;;;;5116434;28;20522;-71
2022/10/16 01:38:52;;;;;;;32.90;19.23;;;11.60;99.90;;;;;;5116773;28;20020;-74
2022/10/16 01:41:24;;;;;;;25.55;18.70;;;11.50;99.90;;;;;;5116876;28;20020;-73
2022/10/16 01:44:03;;;;;;;29.67;19.42;;;11.50;99.90;;;;;;5116656;28;20070;-71
2022/10/16 01:46:31;;;;;;;26.05;18.75;;;11.50;99.90;;;;;;5116548;28;20027;-71
2022/10/16 01:48:58;;;;;;;32.63;19.58;;;11.50;99.90;;;;;;5116520;28;20032;-74
2022/10/16 01:51:26;;;;;;;34.65;18.30;;;11.50;99.90;;;;;;5115173;28;20527;-71
2022/10/16 01:53:55;;;;;;;28.83;18.05;;;11.40;99.90;;;;;;5115165;28;20015;-74
2022/10/16 01:56:23;;;;;;;30.27;17.88;;;11.40;99.90;;;;;;5116379;27;20092;-74
2022/10/16 01:59:26;;;;;;;31.63;18.38;;;11.40;99.90;;;;;;5116350;28;20358;-74
2022/10/16 02:01:59;;;;;;;25.48;18.15;;;11.40;99.90;;;;;;5107301;27;20401;-73
2022/10/16 02:04:31;;;;;;;29.10;18.75;;;11.30;99.90;;;;;;5116265;28;20024;-74
2022/10/16 02:06:56;;;;;;;28.90;19.43;;;11.40;99.90;;;;;;5115050;28;20461;-73
2022/10/16 02:09:22;;;;;;;32.58;18.73;;;11.30;99.90;;;;;;5116036;28;20110;-71
2022/10/16 02:11:49;;;;;;;29.60;18.52;;;11.30;99.90;;;;;;5116152;28;20055;-71
2022/10/16 02:14:15;;;;;;;33.20;20.33;;;11.20;99.90;;;;;;5104001;28;20024;-74
2022/10/16 02:16:44;;;;;;;29.02;19.30;;;11.20;99.90;;;;;;5093965;28;20024;-74
2022/10/16 02:19:10;;;;;;;26.30;17.95;;;11.20;99.90;;;;;;5094828;28;20056;-71
2022/10/16 02:21:38;;;;;;;29.35;18.38;;;11.20;99.90;;;;;;5095585;28;20026;-71
2022/10/16 02:24:21;;;;;;;29.38;19.40;;;11.10;99.90;;;;;;5095463;28;20016;-71
2022/10/16 02:26:55;;;;;;;26.45;17.30;;;11.10;99.90;;;;;;5096139;28;20024;-71
2022/10/16 02:29:25;;;;;;;31.25;18.90;;;11.10;99.90;;;;;;5107236;28;20059;-70
2022/10/16 02:31:55;;;;;;;29.42;18.15;;;11.00;99.90;;;;;;5094320;28;20089;-70
2022/10/16 02:34:22;;;;;;;28.73;18.00;;;11.00;99.90;;;;;;5095174;28;20072;-73
2022/10/16 02:36:50;;;;;;;28.02;18.35;;;11.00;99.90;;;;;;5094083;28;20393;-71
2022/10/16 02:39:17;;;;;;;29.55;17.10;;;10.90;99.90;;;;;;5095085;28;20039;-74
2022/10/16 02:41:43;;;;;;;25.50;18.42;;;10.80;99.90;;;;;;5095209;28;20028;-71
2022/10/16 02:44:08;;;;;;;29.10;19.33;;;10.80;99.90;;;;;;5095153;28;20073;-74
2022/10/16 02:46:34;;;;;;;26.10;19.25;;;10.80;99.90;;;;;;5095031;28;20059;-74
2022/10/16 02:49:00;;;;;;;24.77;17.10;;;10.70;99.90;;;;;;5093641;28;20492;-72
2022/10/16 02:51:25;;;;;;;29.80;18.30;;;10.70;99.90;;;;;;5094999;28;20073;-71
2022/10/16 02:53:51;;;;;;;27.60;18.13;;;10.70;99.90;;;;;;5093659;28;20028;-71
2022/10/16 02:56:17;;;;;;;28.45;18.27;;;10.60;99.90;;;;;;5093630;28;20495;-74
2022/10/16 02:58:42;;;;;;;26.98;18.60;;;10.60;99.90;;;;;;5095001;28;20527;-74
2022/10/16 03:01:08;;;;;;;28.98;18.65;;;10.60;99.90;;;;;;5094714;28;20024;-71
2022/10/16 03:03:33;;;;;;;26.85;17.55;;;10.50;99.90;;;;;;5094820;28;20063;-72
2022/10/16 03:05:59;;;;;;;26.77;17.52;;;10.40;99.90;;;;;;5094618;28;20035;-71
2022/10/16 03:08:25;;;;;;;25.35;17.45;;;10.40;99.90;;;;;;5094613;28;20031;-71
2022/10/16 03:10:51;;;;;;;28.45;18.30;;;10.40;99.90;;;;;;5094503;28;20034;-74
2022/10/16 03:13:16;;;;;;;27.60;18.58;;;10.30;99.90;;;;;;5094519;28;20012;-71
2022/10/16 03:15:43;;;;;;;31.67;17.83;;;10.30;99.90;;;;;;5094457;28;20390;-73
2022/10/16 03:18:09;;;;;;;27.27;16.92;;;10.20;99.90;;;;;;5094580;28;20039;-71
2022/10/16 03:20:34;;;;;;;24.20;15.98;;;10.20;99.90;;;;;;5094341;28;20020;-71
2022/10/16 03:23:00;;;;;;;23.98;17.42;;;10.10;99.90;;;;;;5093240;28;20024;-71
2022/10/16 03:25:25;;;;;;;30.13;18.58;;;10.10;99.90;;;;;;5094366;28;20032;-74
2022/10/16 03:27:51;;;;;;;23.42;16.10;;;10.10;99.90;;;;;;5093070;28;20020;-72
2022/10/16 03:30:17;;;;;;;28.52;17.90;;;10.00;99.90;;;;;;5110330;28;20035;-74
2022/10/16 03:32:44;;;;;;;24.60;16.05;;;10.00;99.90;;;;;;5114677;28;20064;-73
2022/10/16 03:35:10;;;;;;;27.88;17.40;;;9.90;99.90;;;;;;5114227;28;20044;-73
2022/10/16 03:37:36;;;;;;;25.05;16.60;;;9.90;99.90;;;;;;5114502;28;20102;-71
2022/10/16 03:40:02;;;;;;;23.17;16.23;;;9.80;99.90;;;;;;5114368;28;20027;-72
2022/10/16 03:42:28;;;;;;;24.23;15.95;;;9.70;99.90;;;;;;5114480;28;20023;-71
2022/10/16 03:44:53;;;;;;;30.52;18.20;;;9.70;99.90;;;;;;5114313;28;20385;-74
2022/10/16 03:47:21;;;;;;;25.45;15.98;;;9.70;99.90;;;;;;5113160;28;20381;-74
2022/10/16 03:49:47;;;;;;;27.20;16.83;;;9.60;99.90;;;;;;5114199;28;20041;-74
2022/10/16 03:52:13;;;;;;;28.20;16.48;;;9.50;99.90;;;;;;5113064;28;20393;-74
2022/10/16 03:54:39;;;;;;;29.38;16.30;;;9.40;99.90;;;;;;5114231;28;20035;-71
2022/10/16 03:57:04;;;;;;;31.38;16.48;;;9.40;99.90;;;;;;5112944;28;20111;-74
2022/10/16 03:59:30;;;;;;;24.30;15.73;;;9.40;99.90;;;;;;5114216;28;20023;-71
2022/10/16 04:01:56;;;;;;;29.38;18.02;;;9.30;99.90;;;;;;5114122;28;20023;-74
2022/10/16 04:04:21;;;;;;;24.50;17.35;;;9.20;99.90;;;;;;5104781;28;20028;-71
2022/10/16 04:06:47;;;;;;;27.73;16.90;;;9.20;99.90;;;;;;5092336;28;20020;-71
2022/10/16 04:09:12;;;;;;;24.13;16.00;;;9.10;99.90;;;;;;5092297;28;20128;-71
2022/10/16 04:11:38;;;;;;;28.90;16.75;;;9.10;99.90;;;;;;5093592;28;20024;-73
2022/10/16 04:14:04;;;;;;;28.95;17.30;;;9.00;99.90;;;;;;5098770;28;20020;-71
2022/10/16 04:16:30;;;;;;;23.17;16.30;;;9.00;99.90;;;;;;5093533;28;20093;-74
2022/10/16 04:18:55;;;;;;;25.52;16.70;;;8.90;99.90;;;;;;5092340;28;20047;-71
2022/10/16 04:21:22;;;;;;;25.30;15.98;;;8.90;99.90;;;;;;5094029;28;20028;-71
2022/10/16 04:23:48;;;;;;;21.85;15.35;;;8.80;99.90;;;;;;5114106;28;20020;-72
2022/10/16 04:26:13;;;;;;;22.25;15.27;;;8.80;99.90;;;;;;5113747;28;20023;-71
2022/10/16 04:28:39;;;;;;;26.20;15.85;;;8.80;99.90;;;;;;5110587;28;20047;-71
2022/10/16 04:31:06;;;;;;;28.20;17.77;;;8.70;99.90;;;;;;5092088;28;20101;-73
2022/10/16 04:33:32;;;;;;;23.30;16.38;;;8.60;99.90;;;;;;5092243;28;20024;-73
2022/10/16 04:35:59;;;;;;;23.45;15.98;;;8.50;99.90;;;;;;5092153;28;20056;-71
2022/10/16 04:38:25;;;;;;;27.63;18.48;;;8.50;99.90;;;;;;5093436;28;20089;-74
2022/10/16 04:40:51;;;;;;;26.55;16.33;;;8.40;99.90;;;;;;5094239;28;20489;-74
2022/10/16 04:43:17;;;;;;;29.48;17.27;;;8.40;99.90;;;;;;5097405;28;20038;-71
2022/10/16 04:45:42;;;;;;;29.00;16.98;;;8.40;99.90;;;;;;5097406;28;20024;-74
2022/10/16 04:48:08;;;;;;;27.10;16.60;;;8.40;99.90;;;;;;5097493;28;20062;-72
2022/10/16 04:50:33;;;;;;;27.05;16.30;;;8.30;99.90;;;;;;5097163;28;20058;-74
2022/10/16 04:52:59;;;;;;;29.67;16.23;;;8.20;99.90;;;;;;5097371;28;20052;-72
2022/10/16 04:55:25;;;;;;;44.10;22.67;;;8.30;99.90;;;;;;5095974;28;20028;-71
2022/10/16 04:57:51;;;;;;;27.30;19.65;;;8.30;99.90;;;;;;5097356;28;20426;-74
2022/10/16 05:00:16;;;;;;;28.50;18.73;;;8.30;99.90;;;;;;5116306;28;20019;-71
2022/10/16 05:02:42;;;;;;;28.52;17.00;;;8.30;99.90;;;;;;5117496;28;20027;-73
2022/10/16 05:05:08;;;;;;;33.35;17.55;;;8.30;99.90;;;;;;5117463;28;20362;-73
2022/10/16 05:07:33;;;;;;;28.80;18.33;;;8.20;99.90;;;;;;5117351;28;20416;-74
2022/10/16 05:09:59;;;;;;;27.73;18.15;;;8.20;99.90;;;;;;5114494;28;20092;-71
2022/10/16 05:12:24;;;;;;;27.65;17.45;;;8.20;99.90;;;;;;5096864;28;20020;-73
2022/10/16 05:14:50;;;;;;;19.15;14.25;;;8.30;99.90;;;;;;5095541;28;20382;-73
2022/10/16 05:17:15;;;;;;;22.27;14.20;;;8.20;99.90;;;;;;5095531;28;20024;-72
2022/10/16 05:19:41;;;;;;;22.20;13.93;;;8.20;99.90;;;;;;5096963;28;20384;-72
2022/10/16 05:22:07;;;;;;;26.98;17.15;;;8.20;99.90;;;;;;5096707;28;20050;-72
2022/10/16 05:24:32;;;;;;;24.45;14.98;;;8.20;99.90;;;;;;5096651;28;20029;-74
2022/10/16 05:26:58;;;;;;;26.85;16.70;;;8.20;99.90;;;;;;5096658;28;20042;-74
2022/10/16 05:29:24;;;;;;;26.58;17.90;;;8.20;99.90;;;;;;5096637;28;20028;-71
2022/10/16 05:31:53;;;;;;;26.95;16.50;;;8.20;99.90;;;;;;5096429;28;20481;-71
2022/10/16 05:34:19;;;;;;;26.13;16.85;;;8.30;99.90;;;;;;5096438;28;20052;-71
2022/10/16 05:36:46;;;;;;;25.67;17.73;;;8.30;99.90;;;;;;5096475;28;20035;-71
2022/10/16 05:39:13;;;;;;;25.55;16.73;;;8.40;99.90;;;;;;5096473;28;20032;-74
2022/10/16 05:41:38;;;;;;;28.58;15.25;;;8.40;99.90;;;;;;5096302;28;20384;-74
2022/10/16 05:44:05;;;;;;;20.67;14.27;;;8.40;99.90;;;;;;5095109;28;20099;-71
2022/10/16 05:46:32;;;;;;;23.55;14.75;;;8.40;99.90;;;;;;5094845;28;20024;-73
2022/10/16 05:48:57;;;;;;;20.27;14.82;;;8.40;99.90;;;;;;5096252;28;20036;-71
2022/10/16 05:51:23;;;;;;;22.05;15.13;;;8.40;99.90;;;;;;5097969;28;20015;-73
2022/10/16 05:53:49;;;;;;;25.10;16.13;;;8.40;99.90;;;;;;5116548;28;20142;-74
2022/10/16 05:56:14;;;;;;;24.13;17.17;;;8.50;99.90;;;;;;5116407;28;20358;-71
2022/10/16 05:58:41;;;;;;;21.45;15.75;;;8.50;99.90;;;;;;5116396;28;20058;-74
2022/10/16 06:01:12;;;;;;;22.90;15.80;;;8.50;99.90;;;;;;5116381;28;20492;-71
2022/10/16 06:03:37;;;;;;;22.17;15.23;;;8.60;99.90;;;;;;5115075;28;20089;-74
2022/10/16 06:06:15;;;;;;;22.08;16.83;;;8.60;99.90;;;;;;5116295;28;20461;-73
2022/10/16 06:08:42;;;;;;;27.27;16.90;;;8.60;99.90;;;;;;5116099;28;20446;-71
2022/10/16 06:11:11;;;;;;;28.02;17.13;;;8.70;99.90;;;;;;5116174;28;20082;-73
2022/10/16 06:13:36;;;;;;;30.88;18.58;;;8.80;99.90;;;;;;5109482;28;20012;-71
2022/10/16 06:16:03;;;;;;;31.77;19.90;;;8.90;99.90;;;;;;5095725;28;20031;-71
2022/10/16 06:18:29;;;;;;;31.00;18.48;;;9.00;99.90;;;;;;5095625;28;20016;-71
2022/10/16 06:20:56;;;;;;;30.10;17.38;;;9.00;99.90;;;;;;5095607;28;20530;-74
2022/10/16 06:23:22;;;;;;;31.00;19.67;;;9.10;99.90;;;;;;5095554;28;20016;-71
2022/10/16 06:25:48;;;;;;;32.00;20.55;;;9.20;99.90;;;;;;5095598;28;20020;-71
2022/10/16 06:28:14;;;;;;;34.72;21.80;;;9.30;99.90;;;;;;5097331;28;20017;-73
2022/10/16 06:30:40;;;;;;;42.92;23.27;;;9.40;99.90;;;;;;5094089;28;20036;-71
2022/10/16 06:33:06;;;;;;;42.17;23.02;;;9.40;99.90;;;;;;5095314;28;20386;-73
2022/10/16 06:35:32;;;;;;;56.38;36.65;;;9.50;99.90;;;;;;5094900;28;20078;-71
2022/10/16 06:37:58;;;;;;;45.65;30.83;;;9.60;99.90;;;;;;5095095;28;20527;-71
2022/10/16 06:40:23;;;;;;;49.03;32.33;;;9.70;99.90;;;;;;5085302;28;20029;-74
2022/10/16 06:42:49;;;;;;;37.22;26.90;;;9.80;99.90;;;;;;5101068;27;20405;-74
2022/10/16 06:45:15;;;;;;;39.15;26.55;;;9.90;99.90;;;;;;5112631;28;20023;-70
2022/10/16 06:47:40;;;;;;;38.13;25.13;;;9.90;99.90;;;;;;5113429;27;20035;-70
2022/10/16 06:50:07;;;;;;;36.17;24.25;;;10.00;99.90;;;;;;5104441;28;20043;-70
2022/10/16 06:52:33;;;;;;;32.55;24.30;;;10.10;99.90;;;;;;5113471;28;20107;-70
2022/10/16 06:54:59;;;;;;;39.80;24.83;;;10.10;99.90;;;;;;5101811;28;20019;-70
2022/10/16 06:57:24;;;;;;;36.50;24.60;;;10.20;99.90;;;;;;5107905;27;20036;-75
2022/10/16 06:59:50;;;;;;;35.92;23.48;;;10.30;99.90;;;;;;5113484;28;20028;-70
2022/10/16 07:02:15;;;;;;;41.15;24.73;;;10.40;99.90;;;;;;5113492;28;20028;-74
2022/10/16 07:04:41;;;;;;;34.80;22.13;;;10.50;99.90;;;;;;5112513;28;20047;-73
2022/10/16 07:07:06;;;;;;;30.80;21.40;;;10.70;99.90;;;;;;5113500;27;20028;-70
2022/10/16 07:09:32;;;;;;;43.03;27.35;;;10.80;99.90;;;;;;5112807;28;20039;-70
2022/10/16 07:11:58;;;;;;;56.42;34.08;;;11.00;99.90;;;;;;5112907;28;20039;-74
2022/10/16 07:14:23;;;;;;;56.00;35.47;;;11.10;99.90;;;;;;5104412;28;20024;-74
2022/10/16 07:16:49;;;;;;;63.08;39.97;;;11.20;99.90;;;;;;5111645;27;20489;-74
2022/10/16 07:19:17;;;;;;;58.95;35.15;;;11.30;99.90;;;;;;5104846;28;20079;-70
2022/10/16 07:21:43;;;;;;;49.72;30.05;;;11.50;99.90;;;;;;5110853;28;21015;-74
2022/10/16 07:24:14;;;;;;;44.20;28.67;;;11.70;99.90;;;;;;5113061;28;20026;-74
2022/10/16 07:26:42;;;;;;;42.35;27.92;;;11.90;99.90;;;;;;5112297;28;20426;-70
2022/10/16 07:29:13;;;;;;;36.38;23.73;;;12.10;99.90;;;;;;5105080;28;20063;-70
2022/10/16 07:31:39;;;;;;;34.63;22.02;;;12.40;99.90;;;;;;5109313;28;20034;-74
2022/10/16 07:34:05;;;;;;;35.25;21.98;;;12.50;99.90;;;;;;5104212;28;20031;-74
2022/10/16 07:36:30;;;;;;;34.35;21.52;;;12.80;99.90;;;;;;5112375;28;20104;-70
2022/10/16 07:38:56;;;;;;;35.72;21.70;;;13.00;99.90;;;;;;5112374;28;20022;-74
2022/10/16 07:41:22;;;;;;;31.67;19.50;;;13.20;99.90;;;;;;5100022;28;20031;-74
2022/10/16 07:43:52;;;;;;;25.55;17.45;;;13.40;99.90;;;;;;5106151;27;20035;-69
2022/10/16 07:46:19;;;;;;;30.63;17.20;;;13.60;99.90;;;;;;5085342;28;20116;-70
2022/10/16 07:48:46;;;;;;;24.05;16.23;;;13.70;99.90;;;;;;5108142;27;20043;-69
2022/10/16 07:51:14;;;;;;;26.58;15.95;;;13.90;99.90;;;;;;5112536;28;20019;-73
2022/10/16 07:53:39;;;;;;;20.00;14.55;;;14.10;99.90;;;;;;5112409;28;20028;-73
2022/10/16 07:56:06;;;;;;;20.35;14.48;;;14.30;99.90;;;;;;5094014;28;20393;-69
2022/10/16 07:58:33;;;;;;;22.10;11.40;;;14.40;99.90;;;;;;5093603;28;20028;-73
2022/10/16 08:01:02;;;;;;;15.90;12.15;;;14.60;99.90;;;;;;5092411;28;20373;-70
2022/10/16 08:03:28;;;;;;;18.10;11.77;;;14.70;99.90;;;;;;5093722;28;20054;-70
2022/10/16 08:05:54;;;;;;;15.95;11.68;;;14.80;99.90;;;;;;5093759;28;20430;-70
2022/10/16 08:08:19;;;;;;;13.55;11.13;;;14.90;99.90;;;;;;5092344;28;20024;-73
2022/10/16 08:10:45;;;;;;;15.23;10.50;;;15.00;99.90;;;;;;5103215;28;20396;-70
2022/10/16 08:13:12;;;;;;;17.67;12.55;;;15.20;99.90;;;;;;5114064;28;20024;-73
2022/10/16 08:15:38;;;;;;;21.20;10.98;;;15.20;99.90;;;;;;5113638;28;20385;-73
2022/10/16 08:18:05;;;;;;;14.05;10.50;;;15.30;99.90;;;;;;5112745;28;20072;-70
2022/10/16 08:20:32;;;;;;;13.88;11.40;;;15.50;99.90;;;;;;5113730;28;20144;-70
2022/10/16 08:22:58;;;;;;;18.50;11.07;;;15.70;99.90;;;;;;5104871;28;20354;-70
2022/10/16 08:25:25;;;;;;;17.65;11.35;;;15.90;99.90;;;;;;5093361;28;20024;-69
2022/10/16 08:27:51;;;;;;;15.68;10.20;;;16.10;99.90;;;;;;5093543;28;20027;-69
2022/10/16 08:30:19;;;;;;;16.38;10.75;;;16.20;99.90;;;;;;5093740;28;20039;-72
2022/10/16 08:32:44;;;;;;;18.38;10.00;;;16.30;99.90;;;;;;5093538;28;20489;-70
2022/10/16 08:35:11;;;;;;;15.98;11.50;;;16.40;99.90;;;;;;5093221;28;20135;-70
2022/10/16 08:37:37;;;;;;;17.40;10.93;;;16.50;99.90;;;;;;5093404;28;20024;-73
2022/10/16 08:40:11;;;;;;;16.45;11.57;;;16.70;99.90;;;;;;5094560;28;20484;-73
2022/10/16 08:43:01;;;;;;;15.32;9.80;;;16.90;99.90;;;;;;5094813;28;20111;-73
2022/10/16 08:45:40;;;;;;;13.70;10.00;;;17.00;99.90;;;;;;5093315;28;20038;-71
2022/10/16 08:48:14;;;;;;;12.70;9.50;;;17.10;94.50;;;;;;5093379;28;20047;-69
2022/10/16 08:50:40;;;;;;;11.82;8.93;;;17.20;92.90;;;;;;5093183;28;20032;-69
2022/10/16 08:53:10;;;;;;;11.82;9.60;;;17.20;91.60;;;;;;5103423;28;20080;-70
2022/10/16 08:55:51;;;;;;;11.07;8.75;;;17.30;91.40;;;;;;5113508;28;20026;-69
2022/10/16 08:58:23;;;;;;;13.18;8.95;;;17.40;90.70;;;;;;5112477;28;20430;-73
2022/10/16 09:00:53;;;;;;;15.02;8.80;;;17.50;93.90;;;;;;5112272;28;20051;-73
2022/10/16 09:03:30;;;;;;;17.67;10.30;;;17.60;88.40;;;;;;5113683;28;20034;-69
2022/10/16 09:05:59;;;;;;;10.77;8.57;;;17.60;88.50;;;;;;5113487;28;20027;-73
2022/10/16 09:08:54;;;;;;;12.90;9.07;;;17.60;87.60;;;;;;5111965;28;20027;-73
2022/10/16 09:11:29;;;;;;;13.13;8.90;;;17.60;88.10;;;;;;5107840;28;20490;-73
2022/10/16 09:14:07;;;;;;;11.23;7.32;;;17.60;88.50;;;;;;5113581;28;20377;-69
2022/10/16 09:16:43;;;;;;;10.60;7.60;;;17.50;86.50;;;;;;5111779;28;20055;-69
2022/10/16 09:19:33;;;;;;;19.67;9.32;;;17.50;86.80;;;;;;5093206;28;20034;-70
2022/10/16 09:22:02;;;;;;;12.68;8.65;;;17.50;88.70;;;;;;5093023;28;20486;-73
2022/10/16 09:24:27;;;;;;;12.18;8.23;;;17.50;86.50;;;;;;5092869;28;20012;-73
2022/10/16 09:26:53;;;;;;;14.85;8.00;;;17.60;88.30;;;;;;5092529;28;20032;-70
2022/10/16 09:29:21;;;;;;;11.32;8.15;;;17.60;87.70;;;;;;5107007;28;20067;-70
2022/10/16 09:31:47;;;;;;;10.40;8.35;;;17.80;87.60;;;;;;5116937;28;20024;-70
2022/10/16 09:34:30;;;;;;;10.35;6.93;;;17.80;86.60;;;;;;5116778;28;20500;-70
2022/10/16 09:36:58;;;;;;;11.85;8.55;;;17.90;81.80;;;;;;5116897;28;20027;-69
2022/10/16 09:39:24;;;;;;;10.02;7.13;;;18.00;82.00;;;;;;5116889;28;20015;-69
2022/10/16 09:41:51;;;;;;;9.95;7.22;;;18.10;83.80;;;;;;5104430;27;20028;-70
2022/10/16 09:44:19;;;;;;;9.32;7.78;;;18.20;84.80;;;;;;5096352;28;20043;-70
2022/10/16 09:46:45;;;;;;;10.40;7.47;;;18.20;82.70;;;;;;5094756;28;20032;-73
2022/10/16 09:49:37;;;;;;;10.05;7.50;;;18.20;81.10;;;;;;5094936;28;20074;-70
2022/10/16 09:52:05;;;;;;;10.20;7.63;;;18.10;80.30;;;;;;5094010;28;20028;-73
2022/10/16 09:54:31;;;;;;;10.15;7.80;;;18.10;82.60;;;;;;5096124;28;20016;-73
2022/10/16 09:57:07;;;;;;;10.73;7.75;;;18.10;83.50;;;;;;5096053;28;20537;-70
2022/10/16 09:59:33;;;;;;;7.82;7.03;;;18.10;81.70;;;;;;5094812;28;20099;-73
2022/10/16 10:02:04;;;;;;;11.05;7.55;;;18.20;82.70;;;;;;5096031;28;20114;-70
2022/10/16 10:04:41;;;;;;;8.65;7.75;;;18.20;81.20;;;;;;5095989;28;20052;-69
2022/10/16 10:07:27;;;;;;;10.00;8.05;;;18.30;82.80;;;;;;5110933;28;20050;-73
2022/10/16 10:09:54;;;;;;;10.82;7.22;;;18.30;82.10;;;;;;5114882;28;20060;-73
2022/10/16 10:12:26;;;;;;;13.75;8.00;;;18.30;84.50;;;;;;5116152;28;20016;-69
2022/10/16 10:14:55;;;;;;;10.07;7.65;;;18.20;80.00;;;;;;5114918;28;20016;-69
2022/10/16 10:17:24;;;;;;;10.27;8.32;;;18.20;80.50;;;;;;5116100;28;20026;-70
2022/10/16 10:20:13;;;;;;;11.23;8.52;;;18.20;84.00;;;;;;5098184;28;20016;-73
2022/10/16 10:22:38;;;;;;;10.70;8.30;;;18.20;83.70;;;;;;5095664;28;20027;-69
2022/10/16 10:25:13;;;;;;;9.35;7.80;;;18.20;82.20;;;;;;5095567;28;20381;-69
2022/10/16 10:27:57;;;;;;;10.85;7.90;;;18.10;81.20;;;;;;5094260;28;20115;-73
2022/10/16 10:31:00;;;;;;;10.85;8.52;;;18.10;81.70;;;;;;5107985;28;20038;-73
2022/10/16 10:33:39;;;;;;;13.18;8.45;;;18.10;83.70;;;;;;5095476;28;20024;-69
2022/10/16 10:36:38;;;;;;;10.25;8.00;;;18.10;85.70;;;;;;5095200;28;20449;-73
2022/10/16 10:39:07;;;;;;;14.20;8.30;;;18.20;87.00;;;;;;5080090;28;20503;-74
2022/10/16 10:41:50;;;;;;;11.57;7.13;;;18.20;83.50;;;;;;5093844;28;20133;-69
2022/10/16 10:44:19;;;;;;;11.18;7.10;;;18.40;84.80;;;;;;5093911;28;20016;-69
2022/10/16 10:47:01;;;;;;;11.10;8.32;;;18.50;81.00;;;;;;5095045;28;20366;-73
2022/10/16 10:49:38;;;;;;;10.97;7.80;;;18.50;79.40;;;;;;5095056;28;20074;-69
2022/10/16 10:52:34;;;;;;;10.10;8.25;;;18.70;80.30;;;;;;5095139;28;20024;-73
2022/10/16 10:55:31;;;;;;;9.68;7.63;;;18.80;80.10;;;;;;5100623;28;20024;-73
2022/10/16 10:58:24;;;;;;;9.85;7.72;;;18.80;79.80;;;;;;5114038;28;20061;-69
2022/10/16 11:00:49;;;;;;;;;;;18.80;79.80;;;;;;5114472;28;20024;-73
2022/10/16 11:03:42;;;;;;;11.40;8.48;;;18.80;79.70;;;;;;5115233;28;20017;-69
2022/10/16 11:06:31;;;;;;;18.17;8.25;;;18.80;80.80;;;;;;5115126;28;20024;-70
2022/10/16 11:09:30;;;;;;;11.15;8.15;;;18.80;80.50;;;;;;5115109;28;20396;-69
2022/10/16 11:12:13;;;;;;;12.23;8.02;;;18.90;80.90;;;;;;5115075;28;20023;-73
2022/10/16 11:15:11;;;;;;;12.10;7.97;;;19.00;80.60;;;;;;5115140;28;20028;-73
2022/10/16 11:17:46;;;;;;;12.15;7.20;;;19.10;80.60;;;;;;5114987;28;20026;-73
2022/10/16 11:20:20;;;;;;;16.00;7.55;;;19.10;81.00;;;;;;5098416;28;20046;-72
2022/10/16 11:23:08;;;;;;;13.73;7.65;;;19.20;80.00;;;;;;5094491;28;20028;-73
2022/10/16 11:25:34;;;;;;;10.38;7.78;;;19.20;80.90;;;;;;5094039;28;20032;-73
2022/10/16 11:28:19;;;;;;;13.88;7.75;;;19.30;81.40;;;;;;5094267;28;20043;-70
2022/10/16 11:30:53;;;;;;;10.32;8.65;;;19.40;81.50;;;;;;5110361;28;20063;-69
2022/10/16 11:33:31;;;;;;;14.70;8.60;;;19.50;82.90;;;;;;5094217;28;20026;-73
2022/10/16 11:36:11;;;;;;;10.32;7.60;;;19.50;80.70;;;;;;5094062;28;20072;-73
2022/10/16 11:38:43;;;;;;;12.73;8.05;;;19.40;80.70;;;;;;5093872;28;20052;-73
2022/10/16 11:41:09;;;;;;;11.23;7.57;;;19.40;80.60;;;;;;5094163;28;20016;-69
2022/10/16 11:43:39;;;;;;;8.27;6.32;;;19.40;80.70;;;;;;5101440;28;20053;-70
2022/10/16 11:46:19;;;;;;;8.93;6.45;;;19.30;78.70;;;;;;5114711;28;20460;-69
2022/10/16 11:49:00;;;;;;;12.63;7.40;;;19.30;78.00;;;;;;5114357;28;20012;-70
2022/10/16 11:51:39;;;;;;;9.20;6.40;;;19.30;80.30;;;;;;5113906;28;20046;-73
2022/10/16 11:54:21;;;;;;;8.98;5.93;;;19.30;79.30;;;;;;5114404;28;20076;-69
2022/10/16 11:56:51;;;;;;;8.33;6.30;;;19.40;79.00;;;;;;5114368;28;20028;-69
2022/10/16 11:59:40;;;;;;;8.55;6.18;;;19.40;76.60;;;;;;5114229;28;20258;-70
2022/10/16 12:02:27;;;;;;;8.27;6.10;;;19.50;77.50;;;;;;5114249;28;20015;-73
2022/10/16 12:05:25;;;;;;;7.18;6.35;;;19.60;76.20;;;;;;5114356;28;20062;-73
2022/10/16 12:08:06;;;;;;;8.27;5.82;;;19.70;75.10;;;;;;5112586;28;20034;-69
2022/10/16 12:10:36;;;;;;;7.22;6.18;;;19.70;74.50;;;;;;5114074;28;20028;-70
2022/10/16 12:13:03;;;;;;;7.43;5.90;;;19.70;75.80;;;;;;5114052;28;20024;-69
2022/10/16 12:15:32;;;;;;;8.82;6.13;;;19.70;73.80;;;;;;5114040;28;20031;-69
2022/10/16 12:17:57;;;;;;;8.75;6.78;;;19.60;75.60;;;;;;5114034;28;20055;-69
2022/10/16 12:20:27;;;;;;;7.65;5.82;;;19.50;76.20;;;;;;5103556;28;20389;-73
2022/10/16 12:22:57;;;;;;;7.80;5.15;;;19.40;76.60;;;;;;5093601;28;20051;-69
2022/10/16 12:25:39;;;;;;;9.05;6.20;;;19.40;77.10;;;;;;5093656;28;20027;-69
2022/10/16 12:28:19;;;;;;;8.85;6.05;;;19.30;76.50;;;;;;5094576;28;20031;-69
2022/10/16 12:31:04;;;;;;;6.30;5.70;;;19.20;76.80;;;;;;5112587;28;20485;-69
2022/10/16 12:33:41;;;;;;;10.80;6.60;;;19.20;76.50;;;;;;5094059;28;20020;-69
2022/10/16 12:36:14;;;;;;;9.73;5.95;;;19.10;76.40;;;;;;5093426;28;20044;-69
2022/10/16 12:38:53;;;;;;;8.80;5.90;;;19.10;77.20;;;;;;5092094;28;20017;-69
2022/10/16 12:41:34;;;;;;;7.30;6.13;;;19.10;78.00;;;;;;5093345;28;20070;-69
2022/10/16 12:44:01;;;;;;;7.32;6.13;;;19.10;78.10;;;;;;5093359;28;20107;-74
2022/10/16 12:46:29;;;;;;;9.77;6.55;;;19.10;78.20;;;;;;5091946;28;20085;-69
2022/10/16 12:49:28;;;;;;;8.25;6.38;;;19.10;77.80;;;;;;5093280;28;20032;-70